sensor_id;sensor_type;location;lat;lon;timestamp;P1;durP1;ratioP1;P2;durP2;ratioP2
61473;SDS011;53694;49.784;30.150;2023-04-30T00:00:36;13.56;;;6.27;;
61473;SDS011;53694;49.784;30.150;2023-04-30T00:01:37;12.09;;;6.16;;
61473;SDS011;53694;49.784;30.150;2023-04-30T00:02:39;12.16;;;7.21;;
61473;SDS011;53694;49.784;30.150;2023-04-30T00:03:41;12.11;;;6.51;;
61473;SDS011;53694;49.784;30.150;2023-04-30T00:04:42;13.40;;;6.37;;
61473;SDS011;53694;49.784;30.150;2023-04-30T00:05:44;11.06;;;5.85;;
61473;SDS011;53694;49.784;30.150;2023-04-30T00:06:45;12.66;;;6.94;;
61473;SDS011;53694;49.784;30.150;2023-04-30T00:07:47;14.00;;;6.34;;
61473;SDS011;53694;49.784;30.150;2023-04-30T00:08:48;15.26;;;6.60;;
61473;SDS011;53694;49.784;30.150;2023-04-30T00:09:50;14.59;;;6.21;;
61473;SDS011;53694;49.784;30.150;2023-04-30T00:10:51;15.37;;;6.99;;
61473;SDS011;53694;49.784;30.150;2023-04-30T00:11:53;10.92;;;6.27;;
61473;SDS011;53694;49.784;30.150;2023-04-30T00:12:54;14.27;;;6.58;;
61473;SDS011;53694;49.784;30.150;2023-04-30T00:13:56;11.88;;;6.69;;
61473;SDS011;53694;49.784;30.150;2023-04-30T00:14:58;16.13;;;7.39;;
61473;SDS011;53694;49.784;30.150;2023-04-30T00:15:59;16.20;;;7.43;;
61473;SDS011;53694;49.784;30.150;2023-04-30T00:17:01;18.19;;;7.44;;
61473;SDS011;53694;49.784;30.150;2023-04-30T00:18:02;13.93;;;7.83;;
61473;SDS011;53694;49.784;30.150;2023-04-30T00:19:04;18.64;;;8.58;;
61473;SDS011;53694;49.784;30.150;2023-04-30T00:20:06;15.88;;;8.06;;
61473;SDS011;53694;49.784;30.150;2023-04-30T00:21:08;16.39;;;8.31;;
61473;SDS011;53694;49.784;30.150;2023-04-30T00:22:09;15.28;;;8.24;;
61473;SDS011;53694;49.784;30.150;2023-04-30T00:23:11;18.96;;;8.19;;
61473;SDS011;53694;49.784;30.150;2023-04-30T00:24:12;13.89;;;8.12;;
61473;SDS011;53694;49.784;30.150;2023-04-30T00:25:14;17.46;;;8.30;;
61473;SDS011;53694;49.784;30.150;2023-04-30T00:26:16;19.67;;;7.98;;
61473;SDS011;53694;49.784;30.150;2023-04-30T00:27:17;14.65;;;7.82;;
61473;SDS011;53694;49.784;30.150;2023-04-30T00:28:19;16.99;;;7.56;;
61473;SDS011;53694;49.784;30.150;2023-04-30T00:29:20;13.76;;;7.36;;
61473;SDS011;53694;49.784;30.150;2023-04-30T00:30:22;15.34;;;7.72;;
61473;SDS011;53694;49.784;30.150;2023-04-30T00:31:23;14.41;;;7.99;;
61473;SDS011;53694;49.784;30.150;2023-04-30T00:32:25;15.43;;;7.86;;
61473;SDS011;53694;49.784;30.150;2023-04-30T00:33:26;13.86;;;6.54;;
61473;SDS011;53694;49.784;30.150;2023-04-30T00:34:28;18.04;;;7.14;;
61473;SDS011;53694;49.784;30.150;2023-04-30T00:35:29;12.05;;;6.60;;
61473;SDS011;53694;49.784;30.150;2023-04-30T00:36:31;14.40;;;6.66;;
61473;SDS011;53694;49.784;30.150;2023-04-30T00:37:33;12.09;;;6.43;;
61473;SDS011;53694;49.784;30.150;2023-04-30T00:38:34;15.81;;;6.52;;
61473;SDS011;53694;49.784;30.150;2023-04-30T00:39:36;14.36;;;6.87;;
61473;SDS011;53694;49.784;30.150;2023-04-30T00:40:37;15.03;;;6.87;;
61473;SDS011;53694;49.784;30.150;2023-04-30T00:41:40;14.43;;;7.06;;
61473;SDS011;53694;49.784;30.150;2023-04-30T00:42:42;15.08;;;7.22;;
61473;SDS011;53694;49.784;30.150;2023-04-30T00:43:44;15.84;;;6.91;;
61473;SDS011;53694;49.784;30.150;2023-04-30T00:44:45;12.93;;;6.24;;
61473;SDS011;53694;49.784;30.150;2023-04-30T00:45:47;15.56;;;7.24;;
61473;SDS011;53694;49.784;30.150;2023-04-30T00:46:48;11.26;;;6.67;;
61473;SDS011;53694;49.784;30.150;2023-04-30T00:47:50;12.03;;;6.91;;
61473;SDS011;53694;49.784;30.150;2023-04-30T00:48:51;13.21;;;6.82;;
61473;SDS011;53694;49.784;30.150;2023-04-30T00:49:53;14.55;;;7.28;;
61473;SDS011;53694;49.784;30.150;2023-04-30T00:50:55;13.96;;;6.73;;
61473;SDS011;53694;49.784;30.150;2023-04-30T00:51:56;15.69;;;6.86;;
61473;SDS011;53694;49.784;30.150;2023-04-30T00:52:58;14.14;;;6.63;;
61473;SDS011;53694;49.784;30.150;2023-04-30T00:54:00;12.95;;;6.66;;
61473;SDS011;53694;49.784;30.150;2023-04-30T00:55:02;15.53;;;6.77;;
61473;SDS011;53694;49.784;30.150;2023-04-30T00:56:05;16.36;;;6.26;;
61473;SDS011;53694;49.784;30.150;2023-04-30T00:57:10;15.22;;;7.63;;
61473;SDS011;53694;49.784;30.150;2023-04-30T00:58:12;12.69;;;6.69;;
61473;SDS011;53694;49.784;30.150;2023-04-30T00:59:15;12.52;;;6.69;;
61473;SDS011;53694;49.784;30.150;2023-04-30T01:00:17;17.73;;;6.87;;
61473;SDS011;53694;49.784;30.150;2023-04-30T01:01:18;13.91;;;6.62;;
61473;SDS011;53694;49.784;30.150;2023-04-30T01:02:20;12.09;;;6.67;;
61473;SDS011;53694;49.784;30.150;2023-04-30T01:03:23;14.69;;;6.86;;
61473;SDS011;53694;49.784;30.150;2023-04-30T01:04:24;11.60;;;6.16;;
61473;SDS011;53694;49.784;30.150;2023-04-30T01:05:26;13.65;;;6.35;;
61473;SDS011;53694;49.784;30.150;2023-04-30T01:06:28;13.17;;;6.14;;
61473;SDS011;53694;49.784;30.150;2023-04-30T01:07:30;11.54;;;6.38;;
61473;SDS011;53694;49.784;30.150;2023-04-30T01:08:32;13.69;;;6.75;;
61473;SDS011;53694;49.784;30.150;2023-04-30T01:09:34;12.47;;;6.04;;
61473;SDS011;53694;49.784;30.150;2023-04-30T01:12:25;14.64;;;7.08;;
61473;SDS011;53694;49.784;30.150;2023-04-30T01:13:30;10.04;;;6.02;;
61473;SDS011;53694;49.784;30.150;2023-04-30T01:14:43;11.55;;;5.99;;
61473;SDS011;53694;49.784;30.150;2023-04-30T01:15:45;12.39;;;6.41;;
61473;SDS011;53694;49.784;30.150;2023-04-30T01:16:51;15.62;;;7.57;;
61473;SDS011;53694;49.784;30.150;2023-04-30T01:18:47;11.80;;;6.58;;
61473;SDS011;53694;49.784;30.150;2023-04-30T01:19:13;13.12;;;7.03;;
61473;SDS011;53694;49.784;30.150;2023-04-30T01:20:14;14.04;;;6.43;;
61473;SDS011;53694;49.784;30.150;2023-04-30T01:21:16;14.26;;;6.69;;
61473;SDS011;53694;49.784;30.150;2023-04-30T01:29:13;11.66;;;6.47;;
61473;SDS011;53694;49.784;30.150;2023-04-30T01:30:16;13.61;;;6.17;;
61473;SDS011;53694;49.784;30.150;2023-04-30T01:31:19;12.03;;;5.38;;
61473;SDS011;53694;49.784;30.150;2023-04-30T01:32:20;16.49;;;5.91;;
61473;SDS011;53694;49.784;30.150;2023-04-30T01:33:22;11.60;;;5.62;;
61473;SDS011;53694;49.784;30.150;2023-04-30T01:34:23;11.96;;;6.03;;
61473;SDS011;53694;49.784;30.150;2023-04-30T01:35:43;12.18;;;6.29;;
61473;SDS011;53694;49.784;30.150;2023-04-30T01:42:34;12.34;;;6.66;;
61473;SDS011;53694;49.784;30.150;2023-04-30T01:43:44;11.06;;;5.95;;
61473;SDS011;53694;49.784;30.150;2023-04-30T01:45:07;12.78;;;5.96;;
61473;SDS011;53694;49.784;30.150;2023-04-30T01:46:30;13.49;;;6.02;;
61473;SDS011;53694;49.784;30.150;2023-04-30T01:47:38;11.09;;;5.75;;
61473;SDS011;53694;49.784;30.150;2023-04-30T01:50:12;10.83;;;6.26;;
61473;SDS011;53694;49.784;30.150;2023-04-30T01:51:43;10.73;;;5.27;;
61473;SDS011;53694;49.784;30.150;2023-04-30T01:52:46;18.21;;;6.22;;
61473;SDS011;53694;49.784;30.150;2023-04-30T01:53:49;10.78;;;5.76;;
61473;SDS011;53694;49.784;30.150;2023-04-30T01:54:57;14.68;;;6.14;;
61473;SDS011;53694;49.784;30.150;2023-04-30T01:56:03;11.78;;;5.73;;
61473;SDS011;53694;49.784;30.150;2023-04-30T01:57:06;14.73;;;5.69;;
61473;SDS011;53694;49.784;30.150;2023-04-30T01:58:14;10.66;;;6.01;;
61473;SDS011;53694;49.784;30.150;2023-04-30T01:59:16;11.17;;;5.65;;
61473;SDS011;53694;49.784;30.150;2023-04-30T02:00:19;13.58;;;5.63;;
61473;SDS011;53694;49.784;30.150;2023-04-30T02:01:25;11.09;;;5.79;;
61473;SDS011;53694;49.784;30.150;2023-04-30T02:02:28;11.91;;;5.85;;
61473;SDS011;53694;49.784;30.150;2023-04-30T02:03:31;13.20;;;5.41;;
61473;SDS011;53694;49.784;30.150;2023-04-30T02:04:33;10.11;;;5.27;;
61473;SDS011;53694;49.784;30.150;2023-04-30T02:05:34;11.21;;;5.56;;
61473;SDS011;53694;49.784;30.150;2023-04-30T02:06:36;12.23;;;6.32;;
61473;SDS011;53694;49.784;30.150;2023-04-30T02:07:45;11.96;;;5.58;;
61473;SDS011;53694;49.784;30.150;2023-04-30T02:08:46;13.72;;;5.90;;
61473;SDS011;53694;49.784;30.150;2023-04-30T02:09:47;11.51;;;5.89;;
61473;SDS011;53694;49.784;30.150;2023-04-30T02:10:49;9.82;;;5.52;;
61473;SDS011;53694;49.784;30.150;2023-04-30T02:11:50;11.45;;;5.14;;
61473;SDS011;53694;49.784;30.150;2023-04-30T02:12:52;15.24;;;5.46;;
61473;SDS011;53694;49.784;30.150;2023-04-30T02:13:54;12.13;;;5.31;;
61473;SDS011;53694;49.784;30.150;2023-04-30T02:14:55;11.47;;;5.48;;
61473;SDS011;53694;49.784;30.150;2023-04-30T02:15:57;11.46;;;6.08;;
61473;SDS011;53694;49.784;30.150;2023-04-30T02:16:58;12.09;;;5.07;;
61473;SDS011;53694;49.784;30.150;2023-04-30T02:18:00;13.10;;;5.75;;
61473;SDS011;53694;49.784;30.150;2023-04-30T02:19:01;10.86;;;5.24;;
61473;SDS011;53694;49.784;30.150;2023-04-30T02:20:03;12.94;;;5.75;;
61473;SDS011;53694;49.784;30.150;2023-04-30T02:21:05;10.37;;;4.91;;
61473;SDS011;53694;49.784;30.150;2023-04-30T02:22:07;11.84;;;5.54;;
61473;SDS011;53694;49.784;30.150;2023-04-30T02:23:08;11.46;;;5.61;;
61473;SDS011;53694;49.784;30.150;2023-04-30T02:24:10;10.90;;;5.21;;
61473;SDS011;53694;49.784;30.150;2023-04-30T02:25:12;12.91;;;5.85;;
61473;SDS011;53694;49.784;30.150;2023-04-30T02:26:13;12.42;;;5.42;;
61473;SDS011;53694;49.784;30.150;2023-04-30T02:27:15;13.83;;;5.46;;
61473;SDS011;53694;49.784;30.150;2023-04-30T02:28:18;13.64;;;5.32;;
61473;SDS011;53694;49.784;30.150;2023-04-30T02:29:20;8.53;;;4.76;;
61473;SDS011;53694;49.784;30.150;2023-04-30T02:30:21;14.99;;;6.29;;
61473;SDS011;53694;49.784;30.150;2023-04-30T02:31:23;15.81;;;5.80;;
61473;SDS011;53694;49.784;30.150;2023-04-30T02:32:25;14.05;;;5.99;;
61473;SDS011;53694;49.784;30.150;2023-04-30T02:33:26;10.85;;;5.75;;
61473;SDS011;53694;49.784;30.150;2023-04-30T02:34:28;13.66;;;6.14;;
61473;SDS011;53694;49.784;30.150;2023-04-30T02:35:29;10.34;;;5.29;;
61473;SDS011;53694;49.784;30.150;2023-04-30T02:36:31;12.16;;;5.65;;
61473;SDS011;53694;49.784;30.150;2023-04-30T02:37:32;14.68;;;6.14;;
61473;SDS011;53694;49.784;30.150;2023-04-30T02:38:34;15.08;;;4.99;;
61473;SDS011;53694;49.784;30.150;2023-04-30T02:39:35;10.60;;;5.48;;
61473;SDS011;53694;49.784;30.150;2023-04-30T02:40:37;10.50;;;5.34;;
61473;SDS011;53694;49.784;30.150;2023-04-30T02:41:41;10.11;;;5.15;;
61473;SDS011;53694;49.784;30.150;2023-04-30T02:42:42;12.97;;;5.71;;
61473;SDS011;53694;49.784;30.150;2023-04-30T02:43:44;11.00;;;5.34;;
61473;SDS011;53694;49.784;30.150;2023-04-30T02:44:45;10.21;;;5.56;;
61473;SDS011;53694;49.784;30.150;2023-04-30T02:45:47;11.53;;;5.54;;
61473;SDS011;53694;49.784;30.150;2023-04-30T02:46:49;12.40;;;5.44;;
61473;SDS011;53694;49.784;30.150;2023-04-30T02:47:50;11.90;;;5.39;;
61473;SDS011;53694;49.784;30.150;2023-04-30T02:48:52;16.23;;;5.91;;
61473;SDS011;53694;49.784;30.150;2023-04-30T02:49:54;9.51;;;5.10;;
61473;SDS011;53694;49.784;30.150;2023-04-30T02:50:55;10.96;;;5.51;;
61473;SDS011;53694;49.784;30.150;2023-04-30T02:51:57;14.07;;;6.03;;
61473;SDS011;53694;49.784;30.150;2023-04-30T02:52:58;13.98;;;5.70;;
61473;SDS011;53694;49.784;30.150;2023-04-30T02:54:00;11.21;;;5.36;;
61473;SDS011;53694;49.784;30.150;2023-04-30T02:55:01;14.28;;;6.27;;
61473;SDS011;53694;49.784;30.150;2023-04-30T02:56:03;8.24;;;5.04;;
61473;SDS011;53694;49.784;30.150;2023-04-30T02:57:05;10.95;;;5.69;;
61473;SDS011;53694;49.784;30.150;2023-04-30T02:58:07;10.79;;;6.01;;
61473;SDS011;53694;49.784;30.150;2023-04-30T02:59:08;10.47;;;5.49;;
61473;SDS011;53694;49.784;30.150;2023-04-30T03:00:10;10.96;;;5.36;;
61473;SDS011;53694;49.784;30.150;2023-04-30T03:01:12;15.08;;;6.01;;
61473;SDS011;53694;49.784;30.150;2023-04-30T03:02:14;10.88;;;5.95;;
61473;SDS011;53694;49.784;30.150;2023-04-30T03:03:15;15.63;;;5.43;;
61473;SDS011;53694;49.784;30.150;2023-04-30T03:04:17;13.79;;;6.03;;
61473;SDS011;53694;49.784;30.150;2023-04-30T03:05:18;14.50;;;5.97;;
61473;SDS011;53694;49.784;30.150;2023-04-30T03:06:20;12.26;;;5.79;;
61473;SDS011;53694;49.784;30.150;2023-04-30T03:07:22;11.37;;;5.96;;
61473;SDS011;53694;49.784;30.150;2023-04-30T03:08:24;10.42;;;5.07;;
61473;SDS011;53694;49.784;30.150;2023-04-30T03:09:26;13.83;;;5.83;;
61473;SDS011;53694;49.784;30.150;2023-04-30T03:10:27;16.30;;;6.38;;
61473;SDS011;53694;49.784;30.150;2023-04-30T03:11:29;12.71;;;6.22;;
61473;SDS011;53694;49.784;30.150;2023-04-30T03:12:30;14.64;;;6.39;;
61473;SDS011;53694;49.784;30.150;2023-04-30T03:13:32;14.57;;;5.57;;
61473;SDS011;53694;49.784;30.150;2023-04-30T03:14:33;13.56;;;5.65;;
61473;SDS011;53694;49.784;30.150;2023-04-30T03:15:35;13.97;;;5.60;;
61473;SDS011;53694;49.784;30.150;2023-04-30T03:16:36;11.75;;;5.62;;
61473;SDS011;53694;49.784;30.150;2023-04-30T03:17:38;12.21;;;5.71;;
61473;SDS011;53694;49.784;30.150;2023-04-30T03:18:39;12.41;;;6.84;;
61473;SDS011;53694;49.784;30.150;2023-04-30T03:19:41;11.58;;;5.84;;
61473;SDS011;53694;49.784;30.150;2023-04-30T03:20:42;12.27;;;5.96;;
61473;SDS011;53694;49.784;30.150;2023-04-30T03:21:44;13.39;;;6.15;;
61473;SDS011;53694;49.784;30.150;2023-04-30T03:22:45;13.44;;;6.17;;
61473;SDS011;53694;49.784;30.150;2023-04-30T03:23:47;17.20;;;7.85;;
61473;SDS011;53694;49.784;30.150;2023-04-30T03:24:48;13.41;;;6.41;;
61473;SDS011;53694;49.784;30.150;2023-04-30T03:25:50;13.30;;;6.01;;
61473;SDS011;53694;49.784;30.150;2023-04-30T03:26:51;14.79;;;6.52;;
61473;SDS011;53694;49.784;30.150;2023-04-30T03:27:53;13.70;;;6.23;;
61473;SDS011;53694;49.784;30.150;2023-04-30T03:28:54;11.74;;;5.89;;
61473;SDS011;53694;49.784;30.150;2023-04-30T03:29:56;12.42;;;6.18;;
61473;SDS011;53694;49.784;30.150;2023-04-30T03:30:57;16.29;;;6.98;;
61473;SDS011;53694;49.784;30.150;2023-04-30T03:31:59;11.31;;;6.34;;
61473;SDS011;53694;49.784;30.150;2023-04-30T03:33:00;10.82;;;5.91;;
61473;SDS011;53694;49.784;30.150;2023-04-30T03:34:02;16.05;;;6.40;;
61473;SDS011;53694;49.784;30.150;2023-04-30T03:35:04;11.50;;;6.09;;
61473;SDS011;53694;49.784;30.150;2023-04-30T03:36:06;11.82;;;5.85;;
61473;SDS011;53694;49.784;30.150;2023-04-30T03:37:07;14.52;;;6.16;;
61473;SDS011;53694;49.784;30.150;2023-04-30T03:38:09;14.41;;;6.79;;
61473;SDS011;53694;49.784;30.150;2023-04-30T03:39:10;11.41;;;6.16;;
61473;SDS011;53694;49.784;30.150;2023-04-30T03:40:12;10.41;;;5.81;;
61473;SDS011;53694;49.784;30.150;2023-04-30T03:41:14;12.77;;;6.42;;
61473;SDS011;53694;49.784;30.150;2023-04-30T03:42:15;12.81;;;5.72;;
61473;SDS011;53694;49.784;30.150;2023-04-30T03:43:17;12.56;;;6.31;;
61473;SDS011;53694;49.784;30.150;2023-04-30T03:44:18;13.48;;;6.36;;
61473;SDS011;53694;49.784;30.150;2023-04-30T03:45:20;12.16;;;6.09;;
61473;SDS011;53694;49.784;30.150;2023-04-30T03:46:21;16.47;;;6.32;;
61473;SDS011;53694;49.784;30.150;2023-04-30T03:47:23;14.16;;;6.41;;
61473;SDS011;53694;49.784;30.150;2023-04-30T03:48:25;15.44;;;7.07;;
61473;SDS011;53694;49.784;30.150;2023-04-30T03:49:26;13.36;;;6.16;;
61473;SDS011;53694;49.784;30.150;2023-04-30T03:50:28;14.61;;;5.90;;
61473;SDS011;53694;49.784;30.150;2023-04-30T03:51:30;12.67;;;6.31;;
61473;SDS011;53694;49.784;30.150;2023-04-30T03:52:31;10.69;;;5.74;;
61473;SDS011;53694;49.784;30.150;2023-04-30T03:53:33;14.29;;;6.49;;
61473;SDS011;53694;49.784;30.150;2023-04-30T03:54:34;12.99;;;6.60;;
61473;SDS011;53694;49.784;30.150;2023-04-30T03:55:36;11.96;;;6.29;;
61473;SDS011;53694;49.784;30.150;2023-04-30T03:56:38;11.49;;;6.43;;
61473;SDS011;53694;49.784;30.150;2023-04-30T03:57:39;11.61;;;6.06;;
61473;SDS011;53694;49.784;30.150;2023-04-30T03:58:41;16.16;;;6.61;;
61473;SDS011;53694;49.784;30.150;2023-04-30T03:59:42;10.56;;;5.64;;
61473;SDS011;53694;49.784;30.150;2023-04-30T04:00:44;16.44;;;6.94;;
61473;SDS011;53694;49.784;30.150;2023-04-30T04:01:46;11.79;;;6.21;;
61473;SDS011;53694;49.784;30.150;2023-04-30T04:02:48;13.26;;;6.29;;
61473;SDS011;53694;49.784;30.150;2023-04-30T04:03:50;12.95;;;6.45;;
61473;SDS011;53694;49.784;30.150;2023-04-30T04:04:51;11.80;;;5.42;;
61473;SDS011;53694;49.784;30.150;2023-04-30T04:05:53;12.55;;;6.19;;
61473;SDS011;53694;49.784;30.150;2023-04-30T04:06:55;13.74;;;6.83;;
61473;SDS011;53694;49.784;30.150;2023-04-30T04:07:56;12.90;;;6.19;;
61473;SDS011;53694;49.784;30.150;2023-04-30T04:08:58;12.31;;;5.84;;
61473;SDS011;53694;49.784;30.150;2023-04-30T04:09:59;12.55;;;6.02;;
61473;SDS011;53694;49.784;30.150;2023-04-30T04:11:01;12.71;;;6.80;;
61473;SDS011;53694;49.784;30.150;2023-04-30T04:12:02;15.63;;;6.39;;
61473;SDS011;53694;49.784;30.150;2023-04-30T04:13:04;16.13;;;6.39;;
61473;SDS011;53694;49.784;30.150;2023-04-30T04:14:06;10.73;;;5.72;;
61473;SDS011;53694;49.784;30.150;2023-04-30T04:15:08;13.59;;;6.39;;
61473;SDS011;53694;49.784;30.150;2023-04-30T04:16:10;16.89;;;6.52;;
61473;SDS011;53694;49.784;30.150;2023-04-30T04:17:11;14.34;;;6.39;;
61473;SDS011;53694;49.784;30.150;2023-04-30T04:18:13;13.67;;;6.11;;
61473;SDS011;53694;49.784;30.150;2023-04-30T04:19:14;11.29;;;5.76;;
61473;SDS011;53694;49.784;30.150;2023-04-30T04:20:16;11.69;;;5.79;;
61473;SDS011;53694;49.784;30.150;2023-04-30T04:21:18;12.28;;;6.09;;
61473;SDS011;53694;49.784;30.150;2023-04-30T04:22:19;15.50;;;6.03;;
61473;SDS011;53694;49.784;30.150;2023-04-30T04:23:21;13.02;;;5.77;;
61473;SDS011;53694;49.784;30.150;2023-04-30T04:24:26;11.42;;;5.74;;
61473;SDS011;53694;49.784;30.150;2023-04-30T04:25:27;9.89;;;5.36;;
61473;SDS011;53694;49.784;30.150;2023-04-30T04:26:29;12.24;;;6.10;;
61473;SDS011;53694;49.784;30.150;2023-04-30T04:27:30;13.07;;;6.21;;
61473;SDS011;53694;49.784;30.150;2023-04-30T04:28:32;13.23;;;6.16;;
61473;SDS011;53694;49.784;30.150;2023-04-30T04:29:34;11.49;;;5.65;;
61473;SDS011;53694;49.784;30.150;2023-04-30T04:30:36;12.64;;;6.37;;
61473;SDS011;53694;49.784;30.150;2023-04-30T04:31:37;11.09;;;5.63;;
61473;SDS011;53694;49.784;30.150;2023-04-30T04:32:39;11.74;;;5.44;;
61473;SDS011;53694;49.784;30.150;2023-04-30T04:33:40;12.02;;;5.93;;
61473;SDS011;53694;49.784;30.150;2023-04-30T04:34:42;13.69;;;6.11;;
61473;SDS011;53694;49.784;30.150;2023-04-30T04:35:43;12.18;;;6.43;;
61473;SDS011;53694;49.784;30.150;2023-04-30T04:36:45;10.61;;;5.94;;
61473;SDS011;53694;49.784;30.150;2023-04-30T04:37:46;10.64;;;5.64;;
61473;SDS011;53694;49.784;30.150;2023-04-30T04:38:48;10.81;;;5.96;;
61473;SDS011;53694;49.784;30.150;2023-04-30T04:39:49;9.19;;;5.48;;
61473;SDS011;53694;49.784;30.150;2023-04-30T04:40:51;12.41;;;5.59;;
61473;SDS011;53694;49.784;30.150;2023-04-30T04:41:53;10.63;;;5.82;;
61473;SDS011;53694;49.784;30.150;2023-04-30T04:42:55;9.96;;;5.25;;
61473;SDS011;53694;49.784;30.150;2023-04-30T04:43:56;10.84;;;5.64;;
61473;SDS011;53694;49.784;30.150;2023-04-30T04:44:59;12.36;;;5.89;;
61473;SDS011;53694;49.784;30.150;2023-04-30T04:46:00;10.42;;;5.75;;
61473;SDS011;53694;49.784;30.150;2023-04-30T04:47:02;13.31;;;6.46;;
61473;SDS011;53694;49.784;30.150;2023-04-30T04:48:03;10.99;;;5.64;;
61473;SDS011;53694;49.784;30.150;2023-04-30T04:49:05;10.42;;;5.36;;
61473;SDS011;53694;49.784;30.150;2023-04-30T04:50:07;11.60;;;5.48;;
61473;SDS011;53694;49.784;30.150;2023-04-30T04:51:09;10.67;;;5.21;;
61473;SDS011;53694;49.784;30.150;2023-04-30T04:52:10;12.78;;;5.57;;
61473;SDS011;53694;49.784;30.150;2023-04-30T04:53:12;12.34;;;5.30;;
61473;SDS011;53694;49.784;30.150;2023-04-30T04:54:13;10.64;;;5.63;;
61473;SDS011;53694;49.784;30.150;2023-04-30T04:55:15;10.29;;;5.24;;
61473;SDS011;53694;49.784;30.150;2023-04-30T04:56:17;12.84;;;5.43;;
61473;SDS011;53694;49.784;30.150;2023-04-30T04:57:18;10.52;;;4.87;;
61473;SDS011;53694;49.784;30.150;2023-04-30T04:58:20;10.79;;;5.19;;
61473;SDS011;53694;49.784;30.150;2023-04-30T04:59:21;10.24;;;4.73;;
61473;SDS011;53694;49.784;30.150;2023-04-30T05:00:23;9.33;;;4.99;;
61473;SDS011;53694;49.784;30.150;2023-04-30T05:01:24;9.11;;;4.77;;
61473;SDS011;53694;49.784;30.150;2023-04-30T05:02:26;12.59;;;4.54;;
61473;SDS011;53694;49.784;30.150;2023-04-30T05:03:27;10.97;;;4.17;;
61473;SDS011;53694;49.784;30.150;2023-04-30T05:04:29;10.71;;;4.99;;
61473;SDS011;53694;49.784;30.150;2023-04-30T05:05:30;9.39;;;4.52;;
61473;SDS011;53694;49.784;30.150;2023-04-30T05:06:32;8.73;;;4.39;;
61473;SDS011;53694;49.784;30.150;2023-04-30T05:07:33;11.54;;;4.45;;
61473;SDS011;53694;49.784;30.150;2023-04-30T05:08:35;8.34;;;4.36;;
61473;SDS011;53694;49.784;30.150;2023-04-30T05:09:36;12.13;;;4.66;;
61473;SDS011;53694;49.784;30.150;2023-04-30T05:10:38;9.19;;;4.10;;
61473;SDS011;53694;49.784;30.150;2023-04-30T05:11:39;9.01;;;4.36;;
61473;SDS011;53694;49.784;30.150;2023-04-30T05:12:41;9.45;;;4.49;;
61473;SDS011;53694;49.784;30.150;2023-04-30T05:13:42;8.94;;;4.00;;
61473;SDS011;53694;49.784;30.150;2023-04-30T05:14:44;10.13;;;4.21;;
61473;SDS011;53694;49.784;30.150;2023-04-30T05:15:46;9.21;;;4.14;;
61473;SDS011;53694;49.784;30.150;2023-04-30T05:16:49;9.55;;;4.34;;
61473;SDS011;53694;49.784;30.150;2023-04-30T05:17:51;7.69;;;4.16;;
61473;SDS011;53694;49.784;30.150;2023-04-30T05:18:52;8.94;;;4.22;;
61473;SDS011;53694;49.784;30.150;2023-04-30T05:19:54;6.71;;;3.96;;
61473;SDS011;53694;49.784;30.150;2023-04-30T05:20:55;9.56;;;4.19;;
61473;SDS011;53694;49.784;30.150;2023-04-30T05:21:57;8.07;;;3.76;;
61473;SDS011;53694;49.784;30.150;2023-04-30T05:22:58;7.79;;;4.24;;
61473;SDS011;53694;49.784;30.150;2023-04-30T05:24:01;8.26;;;3.98;;
61473;SDS011;53694;49.784;30.150;2023-04-30T05:25:03;5.75;;;3.27;;
61473;SDS011;53694;49.784;30.150;2023-04-30T05:26:05;7.16;;;3.84;;
61473;SDS011;53694;49.784;30.150;2023-04-30T05:27:07;10.00;;;4.11;;
61473;SDS011;53694;49.784;30.150;2023-04-30T05:28:09;8.56;;;4.40;;
61473;SDS011;53694;49.784;30.150;2023-04-30T05:29:10;6.14;;;3.59;;
61473;SDS011;53694;49.784;30.150;2023-04-30T05:30:12;8.79;;;4.10;;
61473;SDS011;53694;49.784;30.150;2023-04-30T05:31:14;6.79;;;3.37;;
61473;SDS011;53694;49.784;30.150;2023-04-30T05:32:15;9.10;;;3.68;;
61473;SDS011;53694;49.784;30.150;2023-04-30T05:33:17;7.92;;;3.46;;
61473;SDS011;53694;49.784;30.150;2023-04-30T05:34:18;9.19;;;3.99;;
61473;SDS011;53694;49.784;30.150;2023-04-30T05:35:20;9.18;;;3.56;;
61473;SDS011;53694;49.784;30.150;2023-04-30T05:36:21;6.38;;;3.66;;
61473;SDS011;53694;49.784;30.150;2023-04-30T05:37:23;8.86;;;3.75;;
61473;SDS011;53694;49.784;30.150;2023-04-30T05:38:24;9.03;;;4.09;;
61473;SDS011;53694;49.784;30.150;2023-04-30T05:39:26;11.20;;;3.89;;
61473;SDS011;53694;49.784;30.150;2023-04-30T05:40:28;10.59;;;3.86;;
61473;SDS011;53694;49.784;30.150;2023-04-30T05:41:29;7.91;;;4.11;;
61473;SDS011;53694;49.784;30.150;2023-04-30T05:42:31;9.64;;;3.78;;
61473;SDS011;53694;49.784;30.150;2023-04-30T05:43:32;8.34;;;3.78;;
61473;SDS011;53694;49.784;30.150;2023-04-30T05:44:34;6.52;;;3.26;;
61473;SDS011;53694;49.784;30.150;2023-04-30T05:45:35;7.66;;;3.41;;
61473;SDS011;53694;49.784;30.150;2023-04-30T05:46:37;7.41;;;3.50;;
61473;SDS011;53694;49.784;30.150;2023-04-30T05:47:39;6.52;;;3.21;;
61473;SDS011;53694;49.784;30.150;2023-04-30T05:48:41;7.93;;;3.64;;
61473;SDS011;53694;49.784;30.150;2023-04-30T05:49:42;8.09;;;3.70;;
61473;SDS011;53694;49.784;30.150;2023-04-30T05:50:44;6.64;;;3.39;;
61473;SDS011;53694;49.784;30.150;2023-04-30T05:51:46;7.16;;;3.46;;
61473;SDS011;53694;49.784;30.150;2023-04-30T05:52:47;7.41;;;4.09;;
61473;SDS011;53694;49.784;30.150;2023-04-30T05:53:49;6.79;;;3.61;;
61473;SDS011;53694;49.784;30.150;2023-04-30T05:54:50;6.11;;;3.44;;
61473;SDS011;53694;49.784;30.150;2023-04-30T05:55:52;7.35;;;3.91;;
61473;SDS011;53694;49.784;30.150;2023-04-30T05:56:53;5.38;;;3.03;;
61473;SDS011;53694;49.784;30.150;2023-04-30T05:57:55;6.59;;;3.65;;
61473;SDS011;53694;49.784;30.150;2023-04-30T05:58:56;6.44;;;3.42;;
61473;SDS011;53694;49.784;30.150;2023-04-30T05:59:58;7.16;;;3.79;;
61473;SDS011;53694;49.784;30.150;2023-04-30T06:00:59;6.74;;;3.76;;
61473;SDS011;53694;49.784;30.150;2023-04-30T06:02:01;6.29;;;3.40;;
61473;SDS011;53694;49.784;30.150;2023-04-30T06:03:02;8.49;;;3.49;;
61473;SDS011;53694;49.784;30.150;2023-04-30T06:04:04;9.09;;;3.77;;
61473;SDS011;53694;49.784;30.150;2023-04-30T06:05:08;7.02;;;3.42;;
61473;SDS011;53694;49.784;30.150;2023-04-30T06:06:10;7.70;;;3.47;;
61473;SDS011;53694;49.784;30.150;2023-04-30T06:07:12;5.30;;;3.09;;
61473;SDS011;53694;49.784;30.150;2023-04-30T06:08:14;6.74;;;3.60;;
61473;SDS011;53694;49.784;30.150;2023-04-30T06:09:15;7.01;;;3.49;;
61473;SDS011;53694;49.784;30.150;2023-04-30T06:10:17;7.91;;;3.25;;
61473;SDS011;53694;49.784;30.150;2023-04-30T06:11:18;7.45;;;3.63;;
61473;SDS011;53694;49.784;30.150;2023-04-30T06:12:20;9.75;;;4.01;;
61473;SDS011;53694;49.784;30.150;2023-04-30T06:13:21;7.94;;;3.47;;
61473;SDS011;53694;49.784;30.150;2023-04-30T06:14:23;7.68;;;3.65;;
61473;SDS011;53694;49.784;30.150;2023-04-30T06:15:25;6.89;;;3.47;;
61473;SDS011;53694;49.784;30.150;2023-04-30T06:16:26;7.13;;;3.18;;
61473;SDS011;53694;49.784;30.150;2023-04-30T06:17:29;7.85;;;3.41;;
61473;SDS011;53694;49.784;30.150;2023-04-30T06:18:30;8.21;;;3.78;;
61473;SDS011;53694;49.784;30.150;2023-04-30T06:19:32;7.40;;;3.31;;
61473;SDS011;53694;49.784;30.150;2023-04-30T06:20:34;7.61;;;3.52;;